Latest Coastal Weather Observations for Creal Reef

IDQ60701

Issued at 8:55 pm EST Friday 31 October 2014 (issued every 10 minutes, with the page automatically refreshed every 10 minutes)

About coastal observations | Map of coastal stations | Coastal observations for QLD | Marine services | Other Formats
Station Details ID: 200736 Name: CREAL REEF Lat: -20.53 Lon: 150.38 Height: 1.7 m
Data from the previous 72 hours. | See also: Recent months for locations in Queensland
Date/Time
EST
Temp

°C
Wind Pressure Rain
since 9am
mm
Weather Cloud Vis
km
Sea
Height
m
Swell
Dir
 
Speed
knots
Gust
knots
hPa Trend Height
m
Period
s
Dir
31/08:30pm 24.2 E 12 14 1015.2 - - - - - - - - -
31/08:20pm 24.2 E 11 - 1015.0 - - - - - - - - -
31/08:00pm 24.2 E 9 11 1015.0 - - - - - - - - -
31/07:30pm 24.3 E 11 13 1014.8 - - - - - - - - -
31/07:20pm 24.3 E 11 - 1014.5 - - - - - - - - -
31/07:00pm 24.3 E 10 12 1014.4 - - - - - - - - -
31/06:30pm 24.3 E 11 13 1014.2 - - - - - - - - -
31/06:20pm 24.4 E 10 - 1013.9 - - - - - - - - -
31/06:00pm 24.3 E 11 13 1013.8 - - - - - - - - -
31/05:30pm 24.4 E 10 12 1013.6 - - - - - - - - -
31/05:20pm 24.5 E 11 - 1013.4 - - - - - - - - -
31/05:00pm 24.6 E 10 11 1013.3 - - - - - - - - -
31/04:30pm 24.7 E 11 12 1013.1 - - - - - - - - -
31/04:20pm 24.8 E 10 - 1013.0 - - - - - - - - -
31/04:00pm 24.8 E 10 11 1013.0 - - - - - - - - -
31/03:30pm 24.7 E 10 11 1012.9 - - - - - - - - -
31/03:20pm 24.6 E 9 - 1012.8 - - - - - - - - -
31/03:00pm 24.6 E 9 11 1013.1 - - - - - - - - -
31/02:30pm 24.7 E 9 10 1013.4 - - - - - - - - -
31/02:20pm 24.6 E 9 - 1013.6 - - - - - - - - -
31/02:00pm 24.7 E 9 11 1013.7 - - - - - - - - -
31/01:30pm 24.7 E 10 12 1014.0 - - - - - - - - -
31/01:20pm 24.7 E 11 - 1013.9 - - - - - - - - -
31/01:00pm 24.6 ENE 10 13 1014.2 - - - - - - - - -
31/12:30pm 24.7 E 11 13 1014.5 - - - - - - - - -
31/12:20pm 24.8 E 10 - 1014.6 - - - - - - - - -
31/12:00pm 24.8 E 10 11 1014.9 - - - - - - - - -
31/11:30am 24.7 ENE 10 12 1015.3 - - - - - - - - -
31/11:20am 24.8 ENE 10 - 1015.3 - - - - - - - - -
31/11:00am 24.7 ENE 9 11 1015.5 - - - - - - - - -
31/10:30am 25.0 E 9 11 1015.9 - - - - - - - - -
31/10:20am 24.9 E 9 - 1015.8 - - - - - - - - -
31/10:00am 24.8 ENE 10 11 1015.9 - - - - - - - - -
31/09:30am 24.6 ENE 11 12 1015.8 - - - - - - - - -
31/09:20am 24.6 ENE 13 - 1015.7 - - - - - - - - -
31/09:00am 24.6 ENE 12 14 1015.7 - - - - - - - - -
31/08:30am 24.6 ENE 12 14 1015.7 - - - - - - - - -
31/08:20am 24.6 ENE 12 - 1015.6 - - - - - - - - -
31/08:00am 24.5 E 14 16 1015.4 - - - - - - - - -
31/07:30am 24.6 ENE 13 15 1015.2 - - - - - - - - -
31/07:20am 24.5 E 14 - 1014.9 - - - - - - - - -
31/07:00am 24.5 ENE 13 15 1014.7 - - - - - - - - -
31/06:30am 24.5 E 11 13 1014.6 - - - - - - - - -
31/06:20am 24.3 E 12 - 1014.5 - - - - - - - - -
31/06:00am 24.3 ENE 11 13 1014.4 - - - - - - - - -
31/05:30am 24.1 ENE 10 11 1014.2 - - - - - - - - -
31/05:20am 24.1 ENE 10 - 1014.0 - - - - - - - - -
31/05:00am 24.1 NE 10 11 1013.9 - - - - - - - - -
31/04:30am 24.1 ENE 10 13 1013.8 - - - - - - - - -
31/04:20am 24.1 ENE 11 - 1013.6 - - - - - - - - -
31/04:00am 24.2 ENE 12 13 1013.6 - - - - - - - - -
31/03:30am 24.2 NE 13 14 1013.3 - - - - - - - - -
31/03:20am 24.2 NE 13 - 1013.2 - - - - - - - - -
31/03:00am 24.2 NE 12 14 1013.3 - - - - - - - - -
31/02:30am 24.2 NE 10 11 1013.4 - - - - - - - - -
31/02:20am 24.2 NE 11 - 1013.4 - - - - - - - - -
31/02:00am 24.2 NE 11 11 1013.5 - - - - - - - - -
31/01:30am 24.3 ENE 11 12 1013.9 - - - - - - - - -
31/01:20am 24.2 ENE 10 - 1013.9 - - - - - - - - -
31/01:00am 24.3 ENE 11 13 1014.1 - - - - - - - - -
31/12:30am 24.3 ENE 13 15 1013.9 - - - - - - - - -
31/12:20am 24.2 ENE 13 - 1013.9 - - - - - - - - -
31/12:00am 24.3 ENE 12 14 1014.2 - - - - - - - - -
 
Date/Time
EST
Temp

°C
Wind Pressure Rain
since 9am
mm
Weather Cloud Vis
km
Sea
Height
m
Swell
Dir
 
Speed
knots
Gust
knots
hPa Trend Height
m
Period
s
Dir
30/11:30pm 24.3 ENE 13 15 1014.4 - - - - - - - - -
30/11:20pm 24.3 ENE 13 - 1014.5 - - - - - - - - -
30/11:00pm 24.2 ENE 13 15 1014.7 - - - - - - - - -
30/10:30pm 24.3 ENE 13 16 1014.9 - - - - - - - - -
30/10:20pm 24.3 ENE 13 - 1014.8 - - - - - - - - -
30/10:00pm 24.3 ENE 13 15 1014.9 - - - - - - - - -
30/09:30pm 24.4 ENE 15 16 1014.6 - - - - - - - - -
30/09:20pm 24.3 ENE 15 - 1014.4 - - - - - - - - -
30/09:00pm 24.4 ENE 15 17 1014.4 - - - - - - - - -
30/08:30pm 24.4 ENE 16 17 1014.3 - - - - - - - - -
30/08:20pm 24.4 ENE 16 - 1014.1 - - - - - - - - -
30/08:00pm 24.4 ENE 15 17 1014.1 - - - - - - - - -
30/07:30pm 24.4 ENE 15 17 1014.0 - - - - - - - - -
30/07:20pm 24.4 ENE 15 - 1014.0 - - - - - - - - -
30/07:00pm 24.4 ENE 14 16 1014.1 - - - - - - - - -
30/06:30pm 24.5 ENE 14 16 1013.8 - - - - - - - - -
30/06:20pm 24.5 ENE 13 - 1013.6 - - - - - - - - -
30/06:00pm 24.5 ENE 13 15 1013.6 - - - - - - - - -
30/05:30pm 24.6 E 13 14 1013.2 - - - - - - - - -
30/05:20pm 24.6 E 12 - 1013.1 - - - - - - - - -
30/05:00pm 24.7 E 12 13 1013.1 - - - - - - - - -
30/04:30pm 24.6 ENE 13 16 1012.8 - - - - - - - - -
30/04:20pm 24.7 ENE 13 - 1012.6 - - - - - - - - -
30/04:00pm 24.6 ENE 13 14 1012.6 - - - - - - - - -
30/03:30pm 24.7 E 11 13 1012.7 - - - - - - - - -
30/03:20pm 24.8 E 10 - 1012.7 - - - - - - - - -
30/03:00pm 24.7 ENE 11 12 1012.9 - - - - - - - - -
30/02:30pm 24.7 E 11 13 1012.8 - - - - - - - - -
30/02:20pm 24.7 E 11 - 1012.8 - - - - - - - - -
30/02:00pm 24.7 E 11 12 1013.0 - - - - - - - - -
30/01:30pm 24.7 E 10 11 1013.2 - - - - - - - - -
30/01:20pm 24.7 E 9 - 1013.2 - - - - - - - - -
30/01:00pm 24.7 E 10 11 1013.5 - - - - - - - - -
30/12:30pm 24.7 E 7 9 1014.0 - - - - - - - - -
30/12:20pm 24.7 E 8 - 1014.1 - - - - - - - - -
30/12:00pm 24.5 E 11 13 1014.4 - - - - - - - - -
30/11:30am 24.7 E 9 11 1014.8 - - - - - - - - -
30/11:20am 24.7 E 9 - 1014.8 - - - - - - - - -
30/11:00am 24.7 E 8 10 1015.0 - - - - - - - - -
30/10:30am 24.7 ENE 11 13 1015.0 - - - - - - - - -
30/10:20am 24.6 ENE 11 - 1014.9 - - - - - - - - -
30/10:00am 24.6 ENE 9 10 1015.4 - - - - - - - - -
30/09:30am 24.8 ENE 6 8 1015.8 - - - - - - - - -
30/09:20am 24.8 E 7 - 1015.6 - - - - - - - - -
30/09:00am 25.0 ESE 4 6 1016.1 - - - - - - - - -
30/08:30am 25.0 S 5 6 1016.5 - - - - - - - - -
30/08:20am 24.8 S 5 - 1016.5 - - - - - - - - -
30/08:00am 25.2 SSW 5 6 1016.6 - - - - - - - - -
30/07:30am 25.2 SW 5 6 1016.7 - - - - - - - - -
30/07:20am 25.1 SW 5 - 1016.6 - - - - - - - - -
30/07:00am 25.2 SSW 5 5 1016.5 - - - - - - - - -
30/06:30am 25.3 CALM 0 3 1016.1 - - - - - - - - -
30/06:20am 24.5 CALM 0 - 1015.7 - - - - - - - - -
30/06:00am 24.1 CALM 0 0 1015.4 - - - - - - - - -
30/05:30am 24.1 N 3 4 1014.9 - - - - - - - - -
30/05:20am 24.1 NNE 4 - 1014.6 - - - - - - - - -
30/05:00am 24.1 NNE 6 7 1014.4 - - - - - - - - -
30/04:30am 24.2 NNE 8 9 1013.8 - - - - - - - - -
30/04:20am 24.2 NNE 7 - 1013.5 - - - - - - - - -
30/04:00am 24.2 NNE 9 11 1013.3 - - - - - - - - -
30/03:30am 24.2 NNE 11 13 1012.9 - - - - - - - - -
30/03:20am 24.2 NNE 9 - 1012.9 - - - - - - - - -
30/03:00am 24.2 NNE 10 12 1012.9 - - - - - - - - -
30/02:30am 24.2 N 10 13 1012.9 - - - - - - - - -
30/02:20am 24.2 N 11 - 1012.6 - - - - - - - - -
30/02:00am 24.2 N 11 13 1012.5 - - - - - - - - -
30/01:30am 24.1 N 14 16 1012.3 - - - - - - - - -
30/01:20am 24.1 N 14 - 1012.4 - - - - - - - - -
30/01:00am 24.1 NNE 14 16 1012.6 - - - - - - - - -
30/12:30am 24.1 N 13 17 1013.3 - - - - - - - - -
30/12:20am 24.1 N 16 - 1012.9 - - - - - - - - -
30/12:00am 24.2 N 14 16 1013.2 - - - - - - - - -
 
Date/Time
EST
Temp

°C
Wind Pressure Rain
since 9am
mm
Weather Cloud Vis
km
Sea
Height
m
Swell
Dir
 
Speed
knots
Gust
knots
hPa Trend Height
m
Period
s
Dir
29/11:30pm 24.2 N 13 15 1013.7 - - - - - - - - -
29/11:20pm 24.2 NNE 13 - 1013.7 - - - - - - - - -
29/11:00pm 24.2 NNE 13 15 1013.9 - - - - - - - - -
29/10:30pm 24.3 NNE 15 16 1014.2 - - - - - - - - -
29/10:20pm 24.3 NNE 14 - 1014.0 - - - - - - - - -
29/10:00pm 24.2 N 13 14 1014.3 - - - - - - - - -
29/09:30pm 24.1 NNE 13 14 1014.3 - - - - - - - - -
29/09:20pm 24.2 NNE 13 - 1014.3 - - - - - - - - -
29/09:00pm 24.1 NNE 12 13 1014.2 - - - - - - - - -
29/08:30pm 24.2 NNE 13 15 1013.9 - - - - - - - - -
29/08:20pm 24.1 NNE 13 - 1013.7 - - - - - - - - -
29/08:00pm 24.1 NNE 12 14 1013.9 - - - - - - - - -
29/07:30pm 24.2 NNE 13 15 1013.6 - - - - - - - - -
29/07:20pm 24.2 NNE 13 - 1013.5 - - - - - - - - -
29/07:00pm 24.2 NNE 12 13 1013.4 - - - - - - - - -
29/06:30pm 24.3 NNE 11 12 1013.4 - - - - - - - - -
29/06:20pm 24.2 NNE 10 - 1013.2 - - - - - - - - -
29/06:00pm 24.3 NNE 10 11 1013.2 - - - - - - - - -
29/05:30pm 24.2 NNE 11 12 1012.9 - - - - - - - - -
29/05:20pm 24.3 N 10 - 1012.7 - - - - - - - - -
29/05:00pm 24.3 NNE 9 11 1012.8 - - - - - - - - -
29/04:30pm 24.3 N 9 11 1012.7 - - - - - - - - -
29/04:20pm 24.3 N 10 - 1012.5 - - - - - - - - -
29/04:00pm 24.3 N 9 10 1012.5 - - - - - - - - -
29/03:30pm 24.3 N 10 11 1012.5 - - - - - - - - -
29/03:20pm 24.3 N 9 - 1012.4 - - - - - - - - -
29/03:00pm 24.3 N 10 11 1012.6 - - - - - - - - -
29/02:30pm 24.2 N 10 11 1012.7 - - - - - - - - -
29/02:20pm 24.3 N 11 - 1012.7 - - - - - - - - -
29/02:00pm 24.3 N 10 11 1013.0 - - - - - - - - -
29/01:30pm 24.3 N 9 11 1013.2 - - - - - - - - -
29/01:20pm 24.3 N 10 - 1013.1 - - - - - - - - -
29/01:00pm 24.3 N 10 12 1013.4 - - - - - - - - -
29/12:30pm 24.2 N 10 11 1013.5 - - - - - - - - -
29/12:20pm 24.2 N 10 - 1013.5 - - - - - - - - -
29/12:00pm 24.2 N 9 11 1013.8 - - - - - - - - -
29/11:30am 24.1 N 9 11 1014.0 - - - - - - - - -
29/11:20am 24.1 N 9 - 1014.1 - - - - - - - - -
29/11:00am 24.1 N 9 11 1014.4 - - - - - - - - -
29/10:30am 24.1 NNE 9 11 1014.7 - - - - - - - - -
29/10:20am 24.1 N 10 - 1014.7 - - - - - - - - -
29/10:00am 24.1 N 10 11 1014.8 - - - - - - - - -
29/09:30am 24.0 NNE 9 10 1014.9 - - - - - - - - -
29/09:20am 24.1 N 9 - 1014.9 - - - - - - - - -
29/09:00am 24.0 N 9 11 1014.9 - - - - - - - - -
29/08:30am 24.0 NNE 7 9 1015.0 - - - - - - - - -
29/08:20am 24.0 NNE 7 - 1014.8 - - - - - - - - -
29/08:00am 23.9 N 7 9 1014.8 - - - - - - - - -
29/07:30am 23.9 N 8 10 1014.4 - - - - - - - - -
29/07:20am 23.9 N 7 - 1014.4 - - - - - - - - -
29/07:00am 23.9 N 5 6 1014.3 - - - - - - - - -
29/06:30am 23.9 N 4 6 1014.2 - - - - - - - - -
29/06:20am 24.0 N 5 - 1014.0 - - - - - - - - -
29/06:00am 23.8 N 8 9 1013.5 - - - - - - - - -
29/05:30am 23.7 NNW 5 8 1013.4 - - - - - - - - -
29/05:20am 23.7 NNW 5 - 1013.2 - - - - - - - - -
29/05:00am 23.6 NW 4 5 1013.3 - - - - - - - - -
29/04:30am 23.7 NW 5 8 1013.4 - - - - - - - - -
29/04:20am 23.7 NW 5 - 1013.0 - - - - - - - - -
29/04:00am 23.8 WNW 5 6 1013.3 - - - - - - - - -
29/03:30am 23.8 WNW 6 7 1013.4 - - - - - - - - -
29/03:20am 23.9 WNW 6 - 1013.4 - - - - - - - - -
29/03:00am 23.9 WNW 6 7 1013.6 - - - - - - - - -
29/02:30am 23.8 NNW 8 10 1012.9 - - - - - - - - -
29/02:20am 23.8 N 9 - 1012.7 - - - - - - - - -
29/02:00am 23.9 N 10 12 1012.6 - - - - - - - - -
29/01:30am 23.9 N 12 14 1012.6 - - - - - - - - -
29/01:20am 23.9 N 12 - 1012.6 - - - - - - - - -
29/01:00am 24.0 N 13 15 1012.8 - - - - - - - - -
29/12:30am 24.1 N 15 17 1013.1 - - - - - - - - -
29/12:20am 24.0 N 15 - 1012.9 - - - - - - - - -
29/12:00am 24.1 N 16 17 1013.1 - - - - - - - - -
 
Date/Time
EST
Temp

°C
Wind Pressure Rain
since 9am
mm
Weather Cloud Vis
km
Sea
Height
m
Swell
Dir
 
Speed
knots
Gust
knots
hPa Trend Height
m
Period
s
Dir
28/11:30pm 24.1 N 14 15 1013.5 - - - - - - - - -
28/11:20pm 24.1 N 13 - 1013.5 - - - - - - - - -
28/11:00pm 24.1 N 13 15 1013.6 - - - - - - - - -
28/10:30pm 24.1 N 14 16 1013.7 - - - - - - - - -
28/10:20pm 24.1 N 13 - 1013.7 - - - - - - - - -
28/10:00pm 24.1 N 12 13 1013.9 - - - - - - - - -
28/09:30pm 24.0 N 13 15 1013.7 - - - - - - - - -
28/09:20pm 24.1 N 12 - 1013.5 - - - - - - - - -
28/09:00pm 24.1 N 12 13 1013.7 - - - - - - - - -

Other Formats:

Comma delimited format used in spreadsheet applications
http://www.bom.gov.au/fwo/IDQ60701/IDQ60701.94371.axf

JavaScript Object Notation format (JSON) in row-major order
http://www.bom.gov.au/fwo/IDQ60701/IDQ60701.94371.json